| time (UTC) | temp F | wind direction | speed MPH | gust MPH | rain 1hr in | rain 24hr in | rain mn in | humidity % | barometer mb |
| 20260902232504 | 61 | 256 | 3.0 | 9.0 | 0.00 | 0.00 | 0.00 | 88 | 1013.5 |
| 20260902232004 | 61 | 260 | 3.0 | 6.0 | 0.00 | 0.00 | 0.00 | 88 | 1013.4 |
| 20260902231504 | 61 | 256 | 3.0 | 10.0 | 0.00 | 0.00 | 0.00 | 88 | 1013.4 |
| 20260902231004 | 61 | 257 | 3.0 | 10.0 | 0.00 | 0.00 | 0.00 | 88 | 1013.4 |
| 20260902230503 | 61 | 257 | 4.0 | 11.0 | 0.00 | 0.00 | 0.00 | 88 | 1013.2 |
| 20260902230005 | 61 | 255 | 4.0 | 11.0 | 0.00 | 0.00 | 0.00 | 87 | 1013.0 |
| 20260902224504 | 61 | 253 | 3.0 | 8.0 | 0.00 | 0.00 | 0.00 | 86 | 1013.3 |
| 20260902224005 | 61 | 249 | 3.0 | 7.0 | 0.00 | 0.00 | 0.00 | 86 | 1013.2 |
| 20260902223004 | 61 | 241 | 3.0 | 7.0 | 0.00 | 0.00 | 0.00 | 85 | 1013.2 |
| 20260902222004 | 61 | 262 | 3.0 | 7.0 | 0.00 | 0.00 | 0.00 | 85 | 1013.2 |
| 20260902221004 | 61 | 270 | 3.0 | 9.0 | 0.00 | 0.00 | 0.00 | 86 | 1013.3 |
| 20260902220503 | 60 | 273 | 3.0 | 9.0 | 0.00 | 0.00 | 0.00 | 86 | 1013.5 |
| 20260902220004 | 60 | 265 | 3.0 | 8.0 | 0.00 | 0.00 | 0.00 | 86 | 1013.4 |
| 20260902215505 | 60 | 258 | 3.0 | 8.0 | 0.00 | 0.00 | 0.00 | 85 | 1013.3 |
| 20260902214505 | 61 | 256 | 3.0 | 7.0 | 0.00 | 0.00 | 0.00 | 85 | 1013.1 |
| 20260902214006 | 61 | 253 | 3.0 | 8.0 | 0.00 | 0.00 | 0.00 | 85 | 1013.2 |
| 20260902213006 | 62 | 270 | 5.0 | 15.0 | 0.00 | 0.00 | 0.00 | 84 | 1013.2 |
| 20260902212505 | 62 | 270 | 7.0 | 15.0 | 0.00 | 0.00 | 0.00 | 84 | 1013.2 |
| 20260902212007 | 62 | 268 | 7.0 | 16.0 | 0.00 | 0.00 | 0.00 | 84 | 1013.2 |
| 20260902211506 | 63 | 267 | 6.0 | 16.0 | 0.00 | 0.00 | 0.00 | 84 | 1013.0 |
| 20260902211007 | 64 | 267 | 4.0 | 9.0 | 0.00 | 0.00 | 0.00 | 88 | 1012.8 |
| 20260902210505 | 64 | 269 | 5.0 | 11.0 | 0.00 | 0.00 | 0.00 | 88 | 1012.4 |
| 20260902210006 | 64 | 261 | 5.0 | 11.0 | 0.00 | 0.00 | 0.00 | 87 | 1012.2 |
| 20260902205506 | 64 | 249 | 4.0 | 11.0 | 0.00 | 0.00 | 0.00 | 87 | 1012.2 |
| 20260902205006 | 64 | 257 | 3.0 | 8.0 | 0.00 | 0.00 | 0.00 | 86 | 1012.3 |
| 20260902204506 | 64 | 270 | 3.0 | 8.0 | 0.00 | 0.00 | 0.00 | 86 | 1012.3 |
| 20260902203506 | 65 | 267 | 3.0 | 7.0 | 0.00 | 0.00 | 0.00 | 86 | 1012.3 |
| 20260902203006 | 65 | 265 | 4.0 | 10.0 | 0.00 | 0.00 | 0.00 | 86 | 1012.3 |
| 20260902201505 | 65 | 244 | 3.0 | 9.0 | 0.00 | 0.00 | 0.00 | 85 | 1012.1 |
| 20260902201006 | 65 | 247 | 3.0 | 8.0 | 0.00 | 0.00 | 0.00 | 85 | 1012.0 |
| 20260902200505 | 65 | 253 | 4.0 | 8.0 | 0.00 | 0.00 | 0.00 | 84 | 1012.1 |
| 20260902200006 | 65 | 260 | 4.0 | 10.0 | 0.00 | 0.00 | 0.00 | 84 | 1012.1 |
| 20260902195007 | 65 | 270 | 5.0 | 11.0 | 0.00 | 0.00 | 0.00 | 83 | 1012.1 |
| 20260902194007 | 65 | 268 | 7.0 | 13.0 | 0.00 | 0.00 | 0.00 | 82 | 1011.9 |
| 20260902193505 | 66 | 269 | 6.0 | 12.0 | 0.00 | 0.00 | 0.00 | 82 | 1011.8 |
| 20260902193006 | 66 | 268 | 6.0 | 12.0 | 0.00 | 0.00 | 0.00 | 81 | 1011.7 |
| 20260902192506 | 66 | 267 | 5.0 | 12.0 | 0.00 | 0.00 | 0.00 | 81 | 1011.7 |
| 20260902190505 | 66 | 260 | 4.0 | 10.0 | 0.00 | 0.00 | 0.00 | 79 | 1011.5 |
| 20260902190006 | 67 | 257 | 4.0 | 7.0 | 0.00 | 0.00 | 0.00 | 79 | 1011.6 |
| 20260902185505 | 67 | 255 | 3.0 | 7.0 | 0.00 | 0.00 | 0.00 | 79 | 1011.5 |
| 20260902185006 | 67 | 254 | 3.0 | 6.0 | 0.00 | 0.00 | 0.00 | 78 | 1011.3 |
| 20260902184505 | 68 | 261 | 4.0 | 13.0 | 0.00 | 0.00 | 0.00 | 77 | 1011.3 |
| 20260902183006 | 69 | 266 | 6.0 | 14.0 | 0.00 | 0.00 | 0.00 | 74 | 1011.2 |
| 20260902182006 | 70 | 269 | 7.0 | 15.0 | 0.00 | 0.00 | 0.00 | 74 | 1011.3 |
| 20260902181505 | 70 | 268 | 7.0 | 15.0 | 0.00 | 0.00 | 0.00 | 74 | 1011.3 |
| 20260902181006 | 70 | 265 | 6.0 | 15.0 | 0.00 | 0.00 | 0.00 | 76 | 1011.1 |
| 20260902180505 | 70 | 261 | 6.0 | 17.0 | 0.00 | 0.00 | 0.00 | 77 | 1011.0 |
| 20260902180007 | 70 | 267 | 8.0 | 18.0 | 0.00 | 0.00 | 0.00 | 75 | 1010.9 |
| 20260902174506 | 71 | 266 | 5.0 | 15.0 | 0.00 | 0.00 | 0.00 | 78 | 1011.2 |
| 20260902173505 | 70 | 253 | 5.0 | 11.0 | 0.00 | 0.00 | 0.00 | 80 | 1011.0 |
| 20260902173006 | 70 | 248 | 5.0 | 11.0 | 0.00 | 0.00 | 0.00 | 80 | 1010.9 |
| 20260902172505 | 69 | 251 | 4.0 | 11.0 | 0.00 | 0.00 | 0.00 | 80 | 1011.0 |
| 20260902172006 | 69 | 257 | 4.0 | 11.0 | 0.00 | 0.00 | 0.00 | 80 | 1011.0 |
| 20260902171505 | 69 | 249 | 4.0 | 11.0 | 0.00 | 0.00 | 0.00 | 80 | 1011.1 |
| 20260902170505 | 70 | 264 | 5.0 | 12.0 | 0.00 | 0.00 | 0.00 | 79 | 1011.2 |
| 20260902170006 | 70 | 263 | 6.0 | 13.0 | 0.00 | 0.00 | 0.00 | 79 | 1011.1 |
| 20260902165505 | 70 | 258 | 6.0 | 15.0 | 0.00 | 0.00 | 0.00 | 79 | 1011.1 |
| 20260902165006 | 71 | 256 | 5.0 | 15.0 | 0.00 | 0.00 | 0.00 | 77 | 1011.0 |
| 20260902164505 | 71 | 254 | 4.0 | 9.0 | 0.00 | 0.00 | 0.00 | 78 | 1011.2 |
| 20260902164006 | 71 | 257 | 3.0 | 9.0 | 0.00 | 0.00 | 0.00 | 78 | 1011.1 |
| 20260902163505 | 71 | 258 | 3.0 | 7.0 | 0.00 | 0.00 | 0.00 | 79 | 1011.1 |
| 20260902163006 | 71 | 257 | 3.0 | 9.0 | 0.00 | 0.00 | 0.00 | 78 | 1011.3 |
| 20260902162505 | 71 | 258 | 3.0 | 9.0 | 0.00 | 0.00 | 0.00 | 78 | 1011.1 |
| 20260902161505 | 71 | 266 | 5.0 | 12.0 | 0.00 | 0.00 | 0.00 | 76 | 1011.0 |
| 20260902161006 | 72 | 263 | 6.0 | 14.0 | 0.00 | 0.00 | 0.00 | 76 | 1011.1 |
| 20260902160505 | 72 | 262 | 6.0 | 14.0 | 0.00 | 0.00 | 0.00 | 75 | 1011.1 |
| 20260902160008 | 72 | 260 | 5.0 | 12.0 | 0.00 | 0.00 | 0.00 | 76 | 1011.1 |
| 20260902155505 | 72 | 265 | 5.0 | 10.0 | 0.00 | 0.00 | 0.00 | 75 | 1011.2 |
| 20260902154505 | 71 | 267 | 5.0 | 10.0 | 0.00 | 0.00 | 0.00 | 76 | 1011.2 |
| 20260902154007 | 71 | 269 | 5.0 | 14.0 | 0.00 | 0.00 | 0.00 | 75 | 1011.1 |
| 20260902153505 | 72 | 269 | 7.0 | 16.0 | 0.00 | 0.00 | 0.00 | 74 | 1011.2 |
| 20260902152505 | 73 | 268 | 6.0 | 13.0 | 0.00 | 0.00 | 0.00 | 73 | 1011.0 |
| 20260902152007 | 73 | 270 | 6.0 | 13.0 | 0.00 | 0.00 | 0.00 | 74 | 1011.1 |
| 20260902151505 | 72 | 271 | 5.0 | 13.0 | 0.00 | 0.00 | 0.00 | 74 | 1011.0 |
| 20260902150505 | 71 | 268 | 6.0 | 14.0 | 0.00 | 0.00 | 0.00 | 73 | 1011.2 |
| 20260902150005 | 71 | 268 | 6.0 | 14.0 | 0.00 | 0.00 | 0.00 | 73 | 1011.1 |
| 20260902145505 | 71 | 269 | 6.0 | 14.0 | 0.00 | 0.00 | 0.00 | 73 | 1011.0 |
| 20260902145006 | 71 | 265 | 5.0 | 14.0 | 0.00 | 0.00 | 0.00 | 72 | 1011.2 |
| 20260902144504 | 72 | 263 | 5.0 | 14.0 | 0.00 | 0.00 | 0.00 | 73 | 1011.2 |
| 20260902143505 | 72 | 266 | 5.0 | 12.0 | 0.00 | 0.00 | 0.00 | 72 | 1011.2 |
| 20260902143006 | 72 | 267 | 5.0 | 12.0 | 0.00 | 0.00 | 0.00 | 72 | 1011.3 |
| 20260902142505 | 72 | 264 | 4.0 | 12.0 | 0.00 | 0.00 | 0.00 | 73 | 1011.1 |
| 20260902142006 | 72 | 268 | 4.0 | 10.0 | 0.00 | 0.00 | 0.00 | 73 | 1011.0 |
| 20260902141504 | 72 | 274 | 5.0 | 11.0 | 0.00 | 0.00 | 0.00 | 72 | 1011.0 |
| 20260902140505 | 73 | 268 | 7.0 | 15.0 | 0.00 | 0.00 | 0.00 | 71 | 1011.1 |
| 20260902140006 | 72 | 266 | 6.0 | 14.0 | 0.00 | 0.00 | 0.00 | 73 | 1011.1 |
| 20260902135505 | 71 | 269 | 5.0 | 14.0 | 0.00 | 0.00 | 0.00 | 73 | 1011.1 |
| 20260902135006 | 72 | 272 | 6.0 | 14.0 | 0.00 | 0.00 | 0.00 | 73 | 1011.2 |
| 20260902134505 | 72 | 261 | 6.0 | 14.0 | 0.00 | 0.00 | 0.00 | 72 | 1011.2 |
| 20260902134007 | 73 | 263 | 7.0 | 13.0 | 0.00 | 0.00 | 0.00 | 72 | 1011.1 |
| 20260902133005 | 73 | 266 | 7.0 | 18.0 | 0.00 | 0.00 | 0.00 | 73 | 1011.0 |
| 20260902132505 | 72 | 269 | 7.0 | 18.0 | 0.00 | 0.00 | 0.00 | 73 | 1011.0 |
| 20260902132005 | 73 | 271 | 7.0 | 14.0 | 0.00 | 0.00 | 0.00 | 71 | 1011.0 |
| 20260902131505 | 74 | 272 | 6.0 | 15.0 | 0.00 | 0.00 | 0.00 | 75 | 1011.0 |
| 20260902131006 | 73 | 266 | 6.0 | 15.0 | 0.00 | 0.00 | 0.00 | 75 | 1010.8 |
| 20260902130504 | 72 | 262 | 5.0 | 13.0 | 0.00 | 0.00 | 0.00 | 78 | 1010.8 |
| 20260902130005 | 71 | 258 | 5.0 | 13.0 | 0.00 | 0.00 | 0.00 | 79 | 1010.9 |
| 20260902125505 | 71 | 258 | 5.0 | 11.0 | 0.00 | 0.00 | 0.00 | 79 | 1010.8 |
| 20260902125006 | 71 | 265 | 5.0 | 11.0 | 0.00 | 0.00 | 0.00 | 78 | 1010.9 |
| 20260902124505 | 71 | 262 | 5.0 | 11.0 | 0.00 | 0.00 | 0.00 | 79 | 1011.0 |
| 20260902123504 | 71 | 260 | 4.0 | 11.0 | 0.00 | 0.00 | 0.00 | 80 | 1011.1 |
| 20260902123005 | 71 | 263 | 4.0 | 11.0 | 0.00 | 0.00 | 0.00 | 81 | 1010.9 |
| 20260902122505 | 71 | 264 | 5.0 | 11.0 | 0.00 | 0.00 | 0.00 | 81 | 1010.9 |
| 20260902122007 | 70 | 254 | 6.0 | 12.0 | 0.00 | 0.00 | 0.00 | 82 | 1010.8 |
| 20260902121505 | 70 | 245 | 5.0 | 12.0 | 0.00 | 0.00 | 0.00 | 82 | 1011.0 |
| 20260902121007 | 69 | 250 | 5.0 | 12.0 | 0.00 | 0.00 | 0.00 | 84 | 1010.8 |
| 20260902120505 | 68 | 260 | 5.0 | 11.0 | 0.00 | 0.00 | 0.00 | 85 | 1011.0 |
| 20260902115006 | 67 | 254 | 3.0 | 10.0 | 0.00 | 0.00 | 0.00 | 87 | 1011.0 |
| 20260902114505 | 67 | 255 | 4.0 | 10.0 | 0.00 | 0.00 | 0.00 | 88 | 1011.0 |
| 20260902113504 | 67 | 263 | 4.0 | 10.0 | 0.00 | 0.00 | 0.00 | 87 | 1010.9 |
| 20260902113006 | 67 | 262 | 4.0 | 11.0 | 0.00 | 0.00 | 0.00 | 86 | 1011.0 |
| 20260902112006 | 67 | 263 | 4.0 | 11.0 | 0.00 | 0.00 | 0.00 | 86 | 1011.0 |
| 20260902111505 | 67 | 258 | 4.0 | 10.0 | 0.00 | 0.00 | 0.00 | 86 | 1010.9 |
| 20260902111005 | 67 | 258 | 4.0 | 10.0 | 0.00 | 0.00 | 0.00 | 86 | 1010.9 |
| 20260902110505 | 67 | 265 | 3.0 | 9.0 | 0.00 | 0.00 | 0.00 | 87 | 1011.0 |
| 20260902110007 | 67 | 267 | 4.0 | 9.0 | 0.00 | 0.00 | 0.00 | 87 | 1011.0 |
| 20260902105504 | 67 | 270 | 4.0 | 11.0 | 0.00 | 0.00 | 0.00 | 87 | 1011.0 |
| 20260902105006 | 67 | 263 | 4.0 | 11.0 | 0.00 | 0.00 | 0.00 | 86 | 1011.0 |
| 20260902104505 | 67 | 256 | 4.0 | 13.0 | 0.00 | 0.00 | 0.00 | 88 | 1011.1 |
| 20260902104006 | 67 | 265 | 4.0 | 13.0 | 0.00 | 0.00 | 0.00 | 88 | 1011.1 |
| 20260902103006 | 66 | 246 | 3.0 | 8.0 | 0.00 | 0.00 | 0.00 | 89 | 1010.9 |
| 20260902102505 | 66 | 252 | 3.0 | 8.0 | 0.00 | 0.00 | 0.00 | 89 | 1010.9 |
| 20260902102005 | 66 | 251 | 3.0 | 9.0 | 0.00 | 0.00 | 0.00 | 89 | 1011.0 |
| 20260902101504 | 66 | 248 | 4.0 | 9.0 | 0.00 | 0.00 | 0.00 | 89 | 1011.0 |
| 20260902101005 | 66 | 252 | 3.0 | 9.0 | 0.00 | 0.00 | 0.00 | 90 | 1011.0 |
| 20260902100505 | 66 | 254 | 3.0 | 9.0 | 0.00 | 0.00 | 0.00 | 90 | 1011.1 |
| 20260902100005 | 65 | 252 | 3.0 | 9.0 | 0.00 | 0.00 | 0.00 | 91 | 1011.3 |
| 20260902095504 | 65 | 252 | 3.0 | 11.0 | 0.00 | 0.00 | 0.00 | 91 | 1011.0 |
| 20260902095005 | 65 | 252 | 3.0 | 11.0 | 0.00 | 0.00 | 0.00 | 91 | 1010.9 |
| 20260902094504 | 65 | 251 | 3.0 | 9.0 | 0.00 | 0.00 | 0.00 | 91 | 1010.9 |
| 20260902093504 | 65 | 242 | 3.0 | 9.0 | 0.00 | 0.00 | 0.00 | 92 | 1010.8 |
| 20260902093006 | 65 | 247 | 2.0 | 9.0 | 0.00 | 0.00 | 0.00 | 92 | 1010.9 |
| 20260902092505 | 65 | 252 | 2.0 | 4.0 | 0.00 | 0.00 | 0.00 | 93 | 1010.9 |
| 20260902092005 | 64 | 252 | 2.0 | 6.0 | 0.00 | 0.00 | 0.00 | 93 | 1010.9 |
| 20260902091505 | 64 | 246 | 2.0 | 6.0 | 0.00 | 0.00 | 0.00 | 93 | 1010.9 |
| 20260902090504 | 64 | 242 | 3.0 | 8.0 | 0.00 | 0.00 | 0.00 | 93 | 1010.9 |
| 20260902090010 | 64 | 237 | 3.0 | 8.0 | 0.00 | 0.00 | 0.00 | 93 | 1010.9 |
| 20260902085005 | 64 | 242 | 2.0 | 7.0 | 0.00 | 0.00 | 0.00 | 94 | 1010.8 |
| 20260902084505 | 64 | 247 | 2.0 | 7.0 | 0.00 | 0.00 | 0.00 | 94 | 1010.9 |
| 20260902083505 | 64 | 230 | 2.0 | 7.0 | 0.00 | 0.00 | 0.00 | 94 | 1010.7 |
| 20260902082504 | 64 | 236 | 2.0 | 7.0 | 0.00 | 0.01 | 0.00 | 95 | 1010.7 |
| 20260902081505 | 63 | 208 | 1.0 | 4.0 | 0.00 | 0.01 | 0.00 | 94 | 1010.7 |
| 20260902081006 | 63 | 197 | 1.0 | 4.0 | 0.00 | 0.01 | 0.00 | 94 | 1010.6 |
| 20260902080505 | 63 | 212 | 2.0 | 5.0 | 0.00 | 0.01 | 0.00 | 94 | 1010.7 |
| 20260902080007 | 63 | 212 | 2.0 | 7.0 | 0.00 | 0.01 | 0.00 | 95 | 1010.6 |
| 20260902075505 | 63 | 200 | 2.0 | 7.0 | 0.00 | 0.01 | 0.00 | 95 | 1010.6 |
| 20260902075005 | 62 | 174 | 2.0 | 6.0 | 0.00 | 0.01 | 0.00 | 95 | 1010.5 |
| 20260902074504 | 62 | 153 | 1.0 | 5.0 | 0.00 | 0.01 | 0.00 | 95 | 1010.5 |
| 20260902074005 | 62 | 167 | 1.0 | 5.0 | 0.00 | 0.01 | 0.00 | 95 | 1010.5 |
| 20260902073504 | 62 | 165 | 1.0 | 5.0 | 0.00 | 0.01 | 0.00 | 95 | 1010.4 |
| 20260902073005 | 62 | 127 | 1.0 | 7.0 | 0.00 | 0.01 | 0.00 | 95 | 1010.5 |
| 20260902072504 | 61 | 133 | 2.0 | 7.0 | 0.00 | 0.01 | 0.00 | 94 | 1010.4 |
| 20260902072006 | 61 | 131 | 2.0 | 6.0 | 0.00 | 0.01 | 0.00 | 95 | 1010.4 |
| 20260902071505 | 61 | 128 | 2.0 | 4.0 | 0.00 | 0.01 | 0.00 | 95 | 1010.5 |
| 20260902071006 | 61 | 134 | 2.0 | 6.0 | 0.00 | 0.01 | 0.00 | 95 | 1010.4 |
| 20260902070505 | 61 | 118 | 2.0 | 7.0 | 0.00 | 0.01 | 0.00 | 94 | 1010.3 |
| 20260902070007 | 61 | 114 | 2.0 | 7.0 | 0.00 | 0.01 | 0.00 | 94 | 1010.4 |
| 20260902065505 | 60 | 118 | 2.0 | 7.0 | 0.00 | 0.01 | 0.00 | 94 | 1010.4 |
| 20260902065006 | 60 | 113 | 3.0 | 8.0 | 0.00 | 0.01 | 0.00 | 94 | 1010.6 |
| 20260902064505 | 60 | 110 | 3.0 | 8.0 | 0.00 | 0.01 | 0.00 | 94 | 1010.4 |
| 20260902064006 | 60 | 112 | 3.0 | 10.0 | 0.00 | 0.01 | 0.00 | 94 | 1010.5 |
| 20260902063504 | 60 | 120 | 3.0 | 10.0 | 0.00 | 0.01 | 0.00 | 94 | 1010.3 |
| 20260902063005 | 60 | 140 | 2.0 | 8.0 | 0.00 | 0.01 | 0.00 | 94 | 1010.5 |
| 20260902062505 | 60 | 154 | 2.0 | 6.0 | 0.00 | 0.01 | 0.00 | 94 | 1010.4 |
| 20260902062005 | 60 | 162 | 3.0 | 8.0 | 0.00 | 0.01 | 0.00 | 94 | 1010.4 |
| 20260902061505 | 60 | 157 | 3.0 | 8.0 | 0.00 | 0.01 | 0.00 | 94 | 1010.4 |
| 20260902060504 | 60 | 148 | 4.0 | 9.0 | 0.00 | 0.01 | 0.00 | 94 | 1010.6 |
| 20260902060005 | 60 | 131 | 4.0 | 9.0 | 0.00 | 0.01 | 0.00 | 94 | 1010.6 |
| 20260902055505 | 60 | 126 | 4.0 | 9.0 | 0.00 | 0.01 | 0.00 | 94 | 1010.6 |
| 20260902055005 | 60 | 125 | 4.0 | 11.0 | 0.00 | 0.01 | 0.00 | 94 | 1010.5 |
| 20260902054505 | 60 | 118 | 4.0 | 11.0 | 0.00 | 0.01 | 0.00 | 94 | 1010.4 |
| 20260902054005 | 59 | 124 | 4.0 | 8.0 | 0.00 | 0.01 | 0.00 | 94 | 1010.4 |
| 20260902053504 | 59 | 126 | 4.0 | 11.0 | 0.00 | 0.01 | 0.00 | 94 | 1010.5 |
| 20260902053005 | 59 | 123 | 5.0 | 12.0 | 0.00 | 0.01 | 0.00 | 94 | 1010.5 |
| 20260902052505 | 59 | 124 | 5.0 | 12.0 | 0.00 | 0.01 | 0.00 | 94 | 1010.8 |
| 20260902052005 | 59 | 120 | 4.0 | 10.0 | 0.00 | 0.01 | 0.00 | 94 | 1010.7 |
| 20260902051504 | 59 | 121 | 4.0 | 11.0 | 0.00 | 0.01 | 0.00 | 94 | 1010.8 |
| 20260902051006 | 59 | 125 | 5.0 | 11.0 | 0.00 | 0.01 | 0.00 | 94 | 1010.9 |
| 20260902050008 | 59 | 125 | 5.0 | 11.0 | 0.00 | 0.01 | 0.00 | 94 | 1011.0 |
| 20260902045504 | 59 | 118 | 6.0 | 11.0 | 0.00 | 0.01 | 0.00 | 94 | 1011.0 |
| 20260902045005 | 59 | 116 | 5.0 | 11.0 | 0.00 | 0.01 | 0.00 | 94 | 1011.1 |
| 20260902044504 | 59 | 121 | 5.0 | 10.0 | 0.00 | 0.01 | 0.00 | 94 | 1011.1 |
| 20260902044005 | 59 | 116 | 5.0 | 11.0 | 0.00 | 0.01 | 0.00 | 94 | 1011.3 |
| 20260902043005 | 59 | 124 | 4.0 | 9.0 | 0.00 | 0.01 | 0.00 | 94 | 1011.3 |
| 20260902042504 | 58 | 124 | 4.0 | 10.0 | 0.00 | 0.01 | 0.00 | 94 | 1011.4 |
| 20260902042005 | 58 | 124 | 4.0 | 10.0 | 0.00 | 0.01 | 0.00 | 94 | 1011.7 |
| 20260902041505 | 58 | 132 | 3.0 | 9.0 | 0.00 | 0.01 | 0.00 | 93 | 1011.8 |
| 20260902041005 | 58 | 136 | 3.0 | 10.0 | 0.00 | 0.01 | 0.00 | 93 | 1012.0 |
| 20260902040504 | 58 | 133 | 3.0 | 10.0 | 0.00 | 0.01 | 0.00 | 93 | 1011.9 |
| 20260902035504 | 58 | 144 | 3.0 | 9.0 | 0.00 | 0.01 | 0.00 | 93 | 1012.1 |
| 20260902035006 | 58 | 161 | 3.0 | 8.0 | 0.00 | 0.01 | 0.00 | 93 | 1012.2 |
| 20260902034504 | 58 | 155 | 3.0 | 11.0 | 0.00 | 0.01 | 0.00 | 93 | 1012.2 |
| 20260902034005 | 58 | 142 | 3.0 | 11.0 | 0.00 | 0.01 | 0.00 | 93 | 1012.4 |
| 20260902033006 | 58 | 152 | 2.0 | 8.0 | 0.00 | 0.01 | 0.00 | 93 | 1012.7 |
| 20260902032504 | 58 | 162 | 2.0 | 6.0 | 0.00 | 0.01 | 0.00 | 93 | 1012.8 |
| 20260902032006 | 58 | 162 | 2.0 | 6.0 | 0.00 | 0.01 | 0.00 | 93 | 1012.9 |
| 20260902031504 | 58 | 159 | 2.0 | 7.0 | 0.00 | 0.01 | 0.00 | 93 | 1012.9 |
| 20260902031005 | 58 | 155 | 2.0 | 8.0 | 0.00 | 0.01 | 0.00 | 93 | 1013.1 |
| 20260902030505 | 58 | 146 | 3.0 | 8.0 | 0.00 | 0.01 | 0.00 | 92 | 1013.0 |
| 20260902030004 | 58 | 132 | 2.0 | 8.0 | 0.00 | 0.01 | 0.00 | 92 | 1013.1 |
| 20260902025504 | 58 | 132 | 2.0 | 8.0 | 0.00 | 0.01 | 0.00 | 93 | 1013.0 |
| 20260902025005 | 58 | 148 | 2.0 | 5.0 | 0.00 | 0.01 | 0.00 | 93 | 1013.2 |
| 20260902024505 | 58 | 146 | 2.0 | 5.0 | 0.00 | 0.01 | 0.00 | 93 | 1013.1 |
| 20260902024005 | 58 | 138 | 2.0 | 5.0 | 0.00 | 0.01 | 0.00 | 93 | 1013.2 |
| 20260902023504 | 58 | 149 | 2.0 | 6.0 | 0.00 | 0.01 | 0.00 | 93 | 1013.4 |
| 20260902023005 | 58 | 150 | 3.0 | 6.0 | 0.00 | 0.01 | 0.00 | 93 | 1013.4 |
| 20260902022504 | 58 | 144 | 2.0 | 5.0 | 0.00 | 0.01 | 0.00 | 93 | 1013.4 |
| 20260902022005 | 58 | 159 | 2.0 | 5.0 | 0.00 | 0.01 | 0.00 | 93 | 1013.7 |
| 20260902021504 | 58 | 164 | 1.0 | 4.0 | 0.00 | 0.01 | 0.00 | 93 | 1013.9 |
| 20260902021007 | 58 | 144 | 1.0 | 4.0 | 0.00 | 0.01 | 0.00 | 93 | 1014.0 |
| 20260902020006 | 58 | 135 | 1.0 | 4.0 | 0.00 | 0.01 | 0.00 | 93 | 1014.2 |
| 20260902015504 | 58 | 140 | 1.0 | 5.0 | 0.00 | 0.01 | 0.00 | 93 | 1014.4 |
| 20260902015005 | 58 | 139 | 1.0 | 7.0 | 0.00 | 0.01 | 0.00 | 93 | 1014.5 |
| 20260902014504 | 58 | 129 | 1.0 | 7.0 | 0.00 | 0.01 | 0.00 | 92 | 1014.5 |
| 20260902014006 | 58 | 124 | 1.0 | 5.0 | 0.00 | 0.01 | 0.00 | 92 | 1014.5 |
| 20260902013504 | 58 | 142 | 2.0 | 5.0 | 0.00 | 0.01 | 0.00 | 92 | 1014.6 |
| 20260902013006 | 58 | 149 | 2.0 | 6.0 | 0.00 | 0.01 | 0.00 | 92 | 1014.6 |
| 20260902012504 | 58 | 138 | 2.0 | 6.0 | 0.00 | 0.01 | 0.00 | 92 | 1014.6 |
| 20260902012005 | 58 | 130 | 2.0 | 5.0 | 0.00 | 0.01 | 0.00 | 92 | 1014.7 |
| 20260902011005 | 58 | 144 | 2.0 | 6.0 | 0.00 | 0.01 | 0.00 | 92 | 1014.8 |
| 20260902010504 | 58 | 144 | 1.0 | 4.0 | 0.00 | 0.01 | 0.00 | 91 | 1014.9 |
| 20260902010005 | 58 | 162 | 1.0 | 4.0 | 0.00 | 0.01 | 0.00 | 91 | 1014.9 |
| 20260902005504 | 58 | 164 | 1.0 | 3.0 | 0.00 | 0.01 | 0.00 | 91 | 1015.0 |
| 20260902005006 | 58 | 154 | 1.0 | 5.0 | 0.00 | 0.01 | 0.00 | 90 | 1015.2 |
| 20260902004005 | 58 | 153 | 2.0 | 6.0 | 0.00 | 0.01 | 0.00 | 89 | 1015.4 |
| 20260902003504 | 58 | 149 | 1.0 | 6.0 | 0.00 | 0.01 | 0.00 | 89 | 1015.4 |
| 20260902003006 | 58 | 145 | 1.0 | 4.0 | 0.00 | 0.01 | 0.00 | 89 | 1015.4 |
| 20260902002504 | 58 | 158 | 1.0 | 4.0 | 0.00 | 0.01 | 0.00 | 88 | 1015.4 |
| 20260902002005 | 58 | 169 | 1.0 | 4.0 | 0.00 | 0.01 | 0.00 | 88 | 1015.4 |
| 20260902001504 | 58 | 169 | 2.0 | 6.0 | 0.00 | 0.01 | 0.00 | 88 | 1015.6 |
| 20260902001005 | 58 | 165 | 2.0 | 6.0 | 0.00 | 0.01 | 0.00 | 88 | 1015.6 |
| 20260902000503 | 58 | 168 | 2.0 | 5.0 | 0.00 | 0.01 | 0.00 | 88 | 1015.7 |
| 20260902000005 | 59 | 170 | 2.0 | 5.0 | 0.00 | 0.01 | 0.00 | 87 | 1015.8 |
| 20260901234504 | 59 | 167 | 2.0 | 6.0 | 0.00 | 0.01 | 0.00 | 86 | 1015.9 |
| 20260901234005 | 59 | 170 | 2.0 | 6.0 | 0.00 | 0.01 | 0.00 | 85 | 1016.0 |